createdAt,value
2023-02-17T00:02:05.909Z,30.00
2023-02-17T00:08:07.818Z,31.10
2023-02-17T00:14:13.521Z,29.23
2023-02-17T00:20:15.404Z,33.57
2023-02-17T00:26:19.074Z,30.40
2023-02-17T00:32:21.005Z,28.07
2023-02-17T00:38:22.918Z,39.17
2023-02-17T00:44:25.566Z,30.30
2023-02-17T00:50:27.472Z,32.60
2023-02-17T00:56:29.356Z,32.63
2023-02-17T01:02:31.240Z,29.07
2023-02-17T01:08:33.204Z,31.60
2023-02-17T01:14:35.119Z,29.37
2023-02-17T01:20:38.871Z,29.57
2023-02-17T01:26:41.056Z,30.50
2023-02-17T01:32:42.978Z,31.80
2023-02-17T01:38:46.500Z,29.13
2023-02-17T01:45:19.260Z,27.20
2023-02-17T01:51:26.559Z,28.07
2023-02-17T01:57:32.880Z,30.70
2023-02-17T02:03:37.448Z,36.10
2023-02-17T02:09:47.246Z,29.23
2023-02-17T02:16:19.017Z,28.07
2023-02-17T02:22:51.616Z,29.10
2023-02-17T02:29:06.060Z,35.03
2023-02-17T02:35:54.595Z,28.40
2023-02-17T02:42:02.992Z,30.63
2023-02-17T02:48:04.906Z,33.80
2023-02-17T02:54:47.967Z,28.07
2023-02-17T03:01:14.142Z,33.93
2023-02-17T03:07:31.932Z,28.27
2023-02-17T03:13:39.382Z,28.73
2023-02-17T03:19:42.129Z,30.50
2023-02-17T03:25:45.201Z,28.40
2023-02-17T03:31:47.416Z,26.60
2023-02-17T03:37:49.357Z,25.27
2023-02-17T03:43:51.356Z,24.90
2023-02-17T03:49:53.294Z,27.10
2023-02-17T03:55:55.172Z,29.30
2023-02-17T04:01:57.116Z,28.40
2023-02-17T04:07:59.050Z,26.60
2023-02-17T04:14:01.058Z,28.37
2023-02-17T04:20:03.667Z,24.40
2023-02-17T04:26:07.722Z,24.03
2023-02-17T04:32:09.827Z,24.27
2023-02-17T04:38:12.233Z,22.53
2023-02-17T04:44:14.127Z,22.47
2023-02-17T04:50:16.416Z,22.37
2023-02-17T04:56:18.480Z,35.10
2023-02-17T05:02:20.417Z,22.60
2023-02-17T05:08:22.414Z,23.93
2023-02-17T05:14:24.447Z,24.10
2023-02-17T05:20:26.486Z,19.80
2023-02-17T05:26:28.572Z,23.00
2023-02-17T05:32:30.546Z,22.47
2023-02-17T05:38:33.140Z,20.50
2023-02-17T05:44:35.088Z,24.03
2023-02-17T05:50:37.002Z,19.60
2023-02-17T05:56:39.652Z,24.13
2023-02-17T06:02:41.672Z,18.80
2023-02-17T06:08:43.616Z,19.90
2023-02-17T06:14:45.507Z,22.90
2023-02-17T06:20:47.451Z,18.47
2023-02-17T06:26:49.322Z,20.33
2023-02-17T06:32:51.443Z,18.20
2023-02-17T06:38:53.363Z,22.30
2023-02-17T06:44:55.239Z,25.23
2023-02-17T06:50:57.112Z,17.63
2023-02-17T06:56:59.018Z,16.30
2023-02-17T07:03:01.050Z,20.30
2023-02-17T07:09:03.472Z,16.10
2023-02-17T07:15:05.897Z,18.50
2023-02-17T07:21:09.874Z,17.40
2023-02-17T07:27:12.238Z,14.67
2023-02-17T07:33:14.139Z,14.17
2023-02-17T07:39:16.586Z,14.13
2023-02-17T07:45:18.774Z,13.97
2023-02-17T07:51:22.822Z,15.70
2023-02-17T07:57:24.796Z,16.60
2023-02-17T08:03:26.704Z,17.93
2023-02-17T08:09:47.313Z,15.60
2023-02-17T08:15:49.214Z,15.77
2023-02-17T08:21:51.215Z,15.60
2023-02-17T08:27:54.451Z,13.40
2023-02-17T08:33:57.224Z,12.23
2023-02-17T08:39:59.337Z,13.37
2023-02-17T08:46:01.295Z,10.37
2023-02-17T08:52:03.943Z,10.03
2023-02-17T08:58:05.925Z,11.87
2023-02-17T09:04:10.319Z,10.23
2023-02-17T09:10:13.393Z,9.13
2023-02-17T09:16:15.479Z,10.17
2023-02-17T09:22:30.707Z,9.10
2023-02-17T09:28:34.193Z,8.13
2023-02-17T09:34:39.493Z,11.77
2023-02-17T09:41:14.379Z,12.77
2023-02-17T09:47:23.271Z,11.10
2023-02-17T09:53:57.963Z,7.10
2023-02-17T10:00:34.023Z,7.93
2023-02-17T10:06:49.866Z,5.93
2023-02-17T10:13:02.506Z,7.10
2023-02-17T10:19:26.757Z,7.20
2023-02-17T10:25:56.343Z,6.90
2023-02-17T10:32:23.512Z,8.10
2023-02-17T10:38:41.299Z,7.13
2023-02-17T10:44:44.107Z,4.90
2023-02-17T10:50:47.153Z,4.43
2023-02-17T10:56:54.236Z,6.40
2023-02-17T11:02:56.259Z,5.70
2023-02-17T11:09:07.574Z,3.23
2023-02-17T11:15:22.922Z,5.43
2023-02-17T11:21:24.991Z,3.23
2023-02-17T11:27:27.564Z,3.50
2023-02-17T11:33:40.591Z,3.70
2023-02-17T11:39:54.590Z,3.40
2023-02-17T11:46:12.192Z,3.73
2023-02-17T11:52:45.088Z,3.07
2023-02-17T11:58:46.848Z,2.27
2023-02-17T12:05:28.918Z,3.57
2023-02-17T12:11:41.002Z,4.70
2023-02-17T12:18:06.943Z,4.43
2023-02-17T12:24:37.799Z,2.20
2023-02-17T12:30:57.980Z,2.70
2023-02-17T12:37:01.107Z,3.27
2023-02-17T12:43:17.696Z,3.60
2023-02-17T12:49:40.086Z,3.37
2023-02-17T12:55:54.355Z,5.20
2023-02-17T13:02:13.227Z,3.77
2023-02-17T13:08:30.504Z,3.90
2023-02-17T13:14:49.262Z,4.33
2023-02-17T13:21:27.652Z,4.40
2023-02-17T13:27:31.072Z,3.90
2023-02-17T13:33:59.291Z,6.43
2023-02-17T13:40:24.184Z,5.53
2023-02-17T13:46:27.589Z,5.80
2023-02-17T13:52:31.985Z,4.20
2023-02-17T13:58:41.112Z,4.10
2023-02-17T14:04:43.834Z,2.77
2023-02-17T14:10:46.282Z,3.20
2023-02-17T14:17:06.325Z,2.60
2023-02-17T14:23:13.462Z,3.63
2023-02-17T14:29:16.453Z,4.90
2023-02-17T14:35:18.225Z,3.93
2023-02-17T14:41:20.154Z,3.60
2023-02-17T14:47:22.028Z,6.00
2023-02-17T14:53:33.274Z,3.93
2023-02-17T14:59:35.199Z,5.03
2023-02-17T15:05:37.112Z,4.87
2023-02-17T15:11:39.922Z,4.67
2023-02-17T15:17:41.834Z,3.93
2023-02-17T15:23:43.739Z,6.60
2023-02-17T15:29:45.688Z,12.60
2023-02-17T15:35:51.347Z,6.30
2023-02-17T15:41:56.244Z,13.90
2023-02-17T15:48:21.482Z,6.80
2023-02-17T15:54:23.479Z,4.07
2023-02-17T16:00:29.692Z,10.37
2023-02-17T16:06:31.725Z,8.20
2023-02-17T16:12:33.722Z,7.00
2023-02-17T16:18:35.610Z,9.60
2023-02-17T16:24:37.527Z,9.57
2023-02-17T16:30:41.693Z,11.10
2023-02-17T16:36:44.143Z,19.77
2023-02-17T16:42:46.028Z,7.97
2023-02-17T16:48:48.283Z,5.83
2023-02-17T16:54:50.364Z,3.60
2023-02-17T17:00:55.043Z,6.27
2023-02-17T17:06:56.942Z,4.30
2023-02-17T17:12:59.796Z,3.20
2023-02-17T17:19:02.668Z,12.17
2023-02-17T17:25:04.715Z,4.33
2023-02-17T17:31:06.735Z,10.17
2023-02-17T17:37:10.872Z,4.10
2023-02-17T17:43:12.752Z,6.10
2023-02-17T17:49:17.879Z,6.33
2023-02-17T17:55:19.811Z,3.50
2023-02-17T18:01:22.591Z,6.07
2023-02-17T18:07:26.572Z,5.93
2023-02-17T18:13:28.746Z,5.67
2023-02-17T18:19:32.416Z,4.73
2023-02-17T18:25:34.346Z,7.10
2023-02-17T18:31:36.700Z,4.97
2023-02-17T18:37:41.024Z,6.13
2023-02-17T18:43:42.997Z,6.00
2023-02-17T18:49:44.899Z,6.17
2023-02-17T18:55:46.796Z,5.90
2023-02-17T19:01:48.795Z,7.10
2023-02-17T19:07:50.682Z,4.53
2023-02-17T19:13:53.450Z,4.50
2023-02-17T19:19:55.341Z,8.10
2023-02-17T19:25:57.470Z,4.03
2023-02-17T19:32:01.240Z,8.50
2023-02-17T19:38:03.213Z,7.63
2023-02-17T19:44:05.306Z,9.80
2023-02-17T19:50:08.043Z,8.80
2023-02-17T19:56:25.787Z,6.30
2023-02-17T20:02:27.813Z,21.53
2023-02-17T20:08:29.712Z,23.50
2023-02-17T20:14:31.650Z,7.20
2023-02-17T20:20:33.563Z,10.23
2023-02-17T20:26:41.682Z,7.67
2023-02-17T20:32:43.584Z,11.80
2023-02-17T20:38:45.919Z,3.57
2023-02-17T20:44:50.252Z,8.07
2023-02-17T20:50:52.291Z,8.03
2023-02-17T20:56:55.700Z,5.00
2023-02-17T21:02:57.703Z,3.67
2023-02-17T21:09:04.462Z,4.50
2023-02-17T21:15:07.064Z,2.93
2023-02-17T21:21:09.112Z,6.73
2023-02-17T21:27:10.983Z,6.13
2023-02-17T21:33:13.013Z,9.00
2023-02-17T21:39:14.966Z,5.33
2023-02-17T21:45:16.959Z,6.77
2023-02-17T21:51:19.185Z,3.87
2023-02-17T21:57:21.153Z,7.40
2023-02-17T22:03:23.454Z,5.87
2023-02-17T22:09:25.335Z,3.73
2023-02-17T22:15:27.226Z,7.27
2023-02-17T22:21:29.487Z,9.90
2023-02-17T22:27:32.279Z,7.13
2023-02-17T22:33:34.876Z,6.73
2023-02-17T22:39:36.771Z,5.53
2023-02-17T22:45:40.252Z,9.10
2023-02-17T22:51:42.173Z,6.30
2023-02-17T22:57:44.046Z,5.40
2023-02-17T23:03:47.374Z,4.30
2023-02-17T23:09:49.282Z,12.93
2023-02-17T23:15:51.482Z,13.40
2023-02-17T23:21:57.653Z,5.57
2023-02-17T23:27:59.910Z,3.57
2023-02-17T23:34:01.814Z,9.17
2023-02-17T23:40:05.430Z,3.60
2023-02-17T23:46:07.900Z,6.13
2023-02-17T23:52:11.046Z,4.10
2023-02-17T23:58:12.946Z,5.57
